Time;durP1;ratioP1;P1;durP2;ratioP2;P2;SDS_P1;SDS_P2;PMS_P1;PMS_P2;Temp;Humidity;BMP_temperature;BMP_pressure;BME280_temperature;BME280_humidity;BME280_pressure;Samples;Min_cycle;Max_cycle;Signal;HPM_P1;HPM_P2
2021/08/15 00:01:06;;;;;;;;;;;27.20;49.90;;;;;;8365961;28;19917;-44
2021/08/15 00:05:07;;;;;;;;;;;27.20;49.90;;;;;;8365112;28;19917;-44
2021/08/15 00:09:08;;;;;;;;;;;27.20;49.90;;;;;;8364271;28;19933;-44
2021/08/15 00:13:08;;;;;;;;;;;27.10;49.90;;;;;;8365148;28;19942;-44
2021/08/15 00:17:09;;;;;;;;;;;27.20;49.90;;;;;;8365442;28;19928;-44
2021/08/15 00:21:11;;;;;;;;;;;27.20;50.00;;;;;;8364660;28;19916;-43
2021/08/15 00:25:14;;;;;;;;;;;27.20;49.90;;;;;;8364615;28;20405;-43
2021/08/15 00:29:14;;;;;;;;;;;27.10;49.90;;;;;;8364606;28;19916;-44
2021/08/15 00:33:15;;;;;;;;;;;27.10;49.90;;;;;;8363936;28;20516;-43
2021/08/15 00:37:15;;;;;;;;;;;27.10;49.90;;;;;;8365420;28;19920;-43
2021/08/15 00:41:16;;;;;;;;;;;27.10;49.90;;;;;;8364031;28;19917;-44
2021/08/15 00:45:16;;;;;;;;;;;27.10;49.90;;;;;;8363684;28;19921;-43
2021/08/15 00:49:17;;;;;;;;;;;27.10;49.90;;;;;;8364130;28;20317;-45
2021/08/15 00:53:17;;;;;;;;;;;27.10;49.90;;;;;;8364513;28;20328;-45
2021/08/15 00:57:18;;;;;;;;;;;27.10;49.90;;;;;;8363281;28;19921;-44
2021/08/15 01:01:18;;;;;;;;;;;27.10;49.90;;;;;;8363909;28;19917;-44
2021/08/15 01:05:19;;;;;;;;;;;27.10;49.90;;;;;;8363685;28;19917;-44
2021/08/15 01:09:20;;;;;;;;;;;27.00;49.90;;;;;;8363125;28;20008;-45
2021/08/15 01:13:21;;;;;;;;;;;27.00;49.90;;;;;;8364354;28;19917;-44
2021/08/15 01:17:22;;;;;;;;;;;27.00;49.90;;;;;;8363313;28;19942;-45
2021/08/15 01:21:23;;;;;;;;;;;27.10;50.00;;;;;;8362875;28;19917;-44
2021/08/15 01:25:23;;;;;;;;;;;27.00;49.90;;;;;;8363282;28;19938;-47
2021/08/15 01:29:25;;;;;;;;;;;27.00;49.90;;;;;;8363977;28;19921;-46
2021/08/15 01:33:30;;;;;;;;;;;27.00;50.00;;;;;;8362805;28;19921;-45
2021/08/15 01:37:30;;;;;;;;;;;27.00;50.00;;;;;;8362999;28;20296;-45
2021/08/15 01:41:31;;;;;;;;;;;27.00;50.00;;;;;;8362987;28;19917;-45
2021/08/15 01:45:31;;;;;;;;;;;27.00;50.00;;;;;;8363352;28;19955;-44
2021/08/15 01:49:31;;;;;;;;;;;26.90;50.00;;;;;;8362786;28;19974;-45
2021/08/15 01:53:32;;;;;;;;;;;26.90;50.00;;;;;;8362908;28;19929;-47
2021/08/15 01:57:32;;;;;;;;;;;26.90;50.00;;;;;;8362253;28;19921;-44
2021/08/15 02:01:33;;;;;;;;;;;26.90;50.00;;;;;;8362674;28;19924;-44
2021/08/15 02:05:33;;;;;;;;;;;26.90;50.00;;;;;;8363340;28;19917;-45
2021/08/15 02:09:34;;;;;;;;;;;26.90;50.00;;;;;;8362460;28;20011;-45
2021/08/15 02:13:34;;;;;;;;;;;26.90;50.00;;;;;;8362228;28;19932;-44
2021/08/15 02:17:35;;;;;;;;;;;26.90;50.00;;;;;;8362330;28;19916;-46
2021/08/15 02:21:35;;;;;;;;;;;26.90;50.00;;;;;;8367604;28;20261;-44
2021/08/15 02:25:36;;;;;;;;;;;26.90;50.60;;;;;;8368709;28;19968;-44
2021/08/15 02:29:36;;;;;;;;;;;26.90;50.10;;;;;;8368285;28;19921;-44
2021/08/15 02:33:36;;;;;;;;;;;26.90;50.10;;;;;;8366818;28;19925;-44
2021/08/15 02:37:37;;;;;;;;;;;26.90;50.10;;;;;;8368486;28;19917;-44
2021/08/15 02:41:38;;;;;;;;;;;26.80;50.00;;;;;;8368626;28;19924;-43
2021/08/15 02:45:38;;;;;;;;;;;26.80;50.00;;;;;;8367199;28;20408;-45
2021/08/15 02:49:40;;;;;;;;;;;26.80;50.00;;;;;;8367796;28;19917;-46
2021/08/15 02:53:40;;;;;;;;;;;26.80;50.10;;;;;;8367521;28;19924;-45
2021/08/15 02:57:41;;;;;;;;;;;26.80;50.10;;;;;;8367774;28;19966;-45
2021/08/15 03:01:42;;;;;;;;;;;26.80;50.00;;;;;;8367486;28;19927;-44
2021/08/15 03:05:42;;;;;;;;;;;26.80;50.00;;;;;;8367350;28;19920;-44
2021/08/15 03:09:43;;;;;;;;;;;26.80;50.00;;;;;;8367625;28;19978;-45
2021/08/15 03:13:44;;;;;;;;;;;26.80;50.10;;;;;;8367862;28;19925;-44
2021/08/15 03:17:45;;;;;;;;;;;26.80;50.00;;;;;;8366837;28;19917;-45
2021/08/15 03:21:45;;;;;;;;;;;26.80;50.00;;;;;;8381609;28;20380;-46
2021/08/15 03:25:45;;;;;;;;;;;26.80;50.10;;;;;;8366460;28;19917;-44
2021/08/15 03:29:46;;;;;;;;;;;26.80;50.10;;;;;;8366239;28;19917;-44
2021/08/15 03:33:46;;;;;;;;;;;26.70;50.10;;;;;;8366568;28;19925;-44
2021/08/15 03:37:47;;;;;;;;;;;26.70;50.10;;;;;;8366216;28;19921;-44
2021/08/15 03:41:48;;;;;;;;;;;26.70;50.10;;;;;;8366252;28;19917;-44
2021/08/15 03:45:48;;;;;;;;;;;26.70;50.10;;;;;;8341175;28;19948;-44
2021/08/15 03:49:48;;;;;;;;;;;26.70;50.00;;;;;;8366714;28;20247;-45
2021/08/15 03:53:49;;;;;;;;;;;26.70;50.10;;;;;;8365325;28;20393;-45
2021/08/15 03:57:49;;;;;;;;;;;26.70;50.10;;;;;;8365593;28;19924;-44
2021/08/15 04:01:50;;;;;;;;;;;26.70;50.10;;;;;;8365403;28;20007;-45
2021/08/15 04:05:55;;;;;;;;;;;26.70;50.10;;;;;;8365994;28;19920;-45
2021/08/15 04:09:55;;;;;;;;;;;26.70;50.20;;;;;;8365176;28;19928;-44
2021/08/15 04:13:56;;;;;;;;;;;26.70;50.10;;;;;;8364970;28;19964;-45
2021/08/15 04:17:56;;;;;;;;;;;26.60;50.10;;;;;;8364491;28;19917;-44
2021/08/15 04:21:57;;;;;;;;;;;26.60;50.10;;;;;;8364901;28;20374;-43
2021/08/15 04:25:58;;;;;;;;;;;26.60;50.10;;;;;;8365640;28;19924;-44
2021/08/15 04:29:58;;;;;;;;;;;26.60;50.10;;;;;;8363929;28;19920;-44
2021/08/15 04:33:59;;;;;;;;;;;26.60;50.10;;;;;;8364555;28;20034;-43
2021/08/15 04:37:59;;;;;;;;;;;26.60;50.10;;;;;;8364160;28;20366;-44
2021/08/15 04:42:00;;;;;;;;;;;26.60;50.10;;;;;;8363829;28;19916;-43
2021/08/15 04:46:01;;;;;;;;;;;26.60;50.10;;;;;;8363940;28;19917;-43
2021/08/15 04:50:01;;;;;;;;;;;26.60;50.20;;;;;;8364168;28;20266;-44
2021/08/15 04:54:01;;;;;;;;;;;26.60;50.20;;;;;;8363404;28;19929;-44
2021/08/15 04:58:03;;;;;;;;;;;26.60;50.20;;;;;;8363996;28;19931;-43
2021/08/15 05:02:03;;;;;;;;;;;26.60;50.20;;;;;;8364122;28;20342;-43
2021/08/15 05:06:04;;;;;;;;;;;26.50;50.10;;;;;;8363304;28;19917;-48
2021/08/15 05:10:04;;;;;;;;;;;26.60;50.10;;;;;;8363885;28;20393;-47
2021/08/15 05:14:06;;;;;;;;;;;26.60;50.10;;;;;;8363592;28;19925;-46
2021/08/15 05:18:06;;;;;;;;;;;26.50;50.10;;;;;;8363773;28;20401;-51
2021/08/15 05:22:07;;;;;;;;;;;26.50;50.10;;;;;;8363283;28;19917;-44
2021/08/15 05:26:07;;;;;;;;;;;26.50;50.10;;;;;;8363101;28;19917;-44
2021/08/15 05:30:08;;;;;;;;;;;26.50;50.10;;;;;;8362747;28;19917;-44
2021/08/15 05:34:08;;;;;;;;;;;26.50;50.10;;;;;;8363961;28;19924;-44
2021/08/15 05:38:09;;;;;;;;;;;26.50;50.10;;;;;;8363025;28;20370;-45
2021/08/15 05:42:09;;;;;;;;;;;26.50;50.10;;;;;;8362630;28;19949;-45
2021/08/15 05:46:10;;;;;;;;;;;26.50;50.10;;;;;;8362723;28;19917;-44
2021/08/15 05:50:10;;;;;;;;;;;26.50;50.10;;;;;;8362708;28;20350;-44
2021/08/15 05:54:11;;;;;;;;;;;26.50;50.10;;;;;;8366054;28;20271;-44
2021/08/15 05:58:11;;;;;;;;;;;26.50;50.10;;;;;;8369411;28;20378;-44
2021/08/15 06:02:12;;;;;;;;;;;26.50;50.10;;;;;;8369424;28;20377;-43
2021/08/15 06:06:12;;;;;;;;;;;26.50;50.10;;;;;;8368595;28;20362;-44
2021/08/15 06:10:13;;;;;;;;;;;26.50;50.10;;;;;;8370084;28;20365;-43
2021/08/15 06:14:14;;;;;;;;;;;26.50;50.10;;;;;;8368451;28;19932;-44
2021/08/15 06:18:16;;;;;;;;;;;26.50;50.10;;;;;;8368003;28;19923;-44
2021/08/15 06:22:17;;;;;;;;;;;26.50;50.10;;;;;;8368198;28;20465;-43
2021/08/15 06:26:17;;;;;;;;;;;26.50;50.10;;;;;;8369034;28;19921;-44
2021/08/15 06:30:18;;;;;;;;;;;26.50;50.10;;;;;;8367827;28;19916;-43
2021/08/15 06:34:19;;;;;;;;;;;26.50;50.10;;;;;;8368035;28;20015;-44
2021/08/15 06:38:19;;;;;;;;;;;26.50;50.10;;;;;;8367906;28;19917;-43
2021/08/15 06:42:20;;;;;;;;;;;26.50;50.10;;;;;;8367266;28;20395;-45
2021/08/15 06:46:20;;;;;;;;;;;26.50;50.10;;;;;;8368237;28;20275;-43
2021/08/15 06:50:21;;;;;;;;;;;26.50;50.10;;;;;;8367345;28;20366;-44
2021/08/15 06:54:22;;;;;;;;;;;26.50;50.10;;;;;;8366586;28;19925;-43
2021/08/15 06:58:23;;;;;;;;;;;26.50;50.10;;;;;;8367603;28;19920;-44
2021/08/15 07:02:23;;;;;;;;;;;26.50;50.10;;;;;;8367784;28;19996;-44
2021/08/15 07:06:24;;;;;;;;;;;26.50;50.00;;;;;;8365823;28;20325;-44
2021/08/15 07:10:24;;;;;;;;;;;26.60;50.00;;;;;;8366846;28;20278;-45
2021/08/15 07:14:25;;;;;;;;;;;26.60;50.00;;;;;;8366689;28;19931;-44
2021/08/15 07:18:26;;;;;;;;;;;26.70;49.80;;;;;;8366607;28;20000;-44
2021/08/15 07:22:26;;;;;;;;;;;26.70;49.70;;;;;;8366848;28;20385;-44
2021/08/15 07:26:27;;;;;;;;;;;26.70;49.70;;;;;;8366166;28;19917;-44
2021/08/15 07:30:28;;;;;;;;;;;26.70;49.70;;;;;;8365759;28;20392;-46
2021/08/15 07:34:29;;;;;;;;;;;26.70;49.80;;;;;;8366376;28;19932;-43
2021/08/15 07:38:29;;;;;;;;;;;26.60;49.80;;;;;;8367067;28;20267;-46
2021/08/15 07:42:30;;;;;;;;;;;26.60;49.80;;;;;;8365671;28;20297;-44
2021/08/15 07:46:30;;;;;;;;;;;26.70;49.90;;;;;;8365934;28;19939;-43
2021/08/15 07:50:36;;;;;;;;;;;26.70;49.80;;;;;;8365881;28;19940;-43
2021/08/15 07:54:37;;;;;;;;;;;26.70;49.80;;;;;;8366420;28;19921;-44
2021/08/15 07:58:37;;;;;;;;;;;26.70;49.80;;;;;;8365786;28;19940;-44
2021/08/15 08:02:37;;;;;;;;;;;26.70;50.40;;;;;;8365523;28;19920;-44
2021/08/15 08:06:38;;;;;;;;;;;26.70;49.90;;;;;;8364638;28;19917;-45
2021/08/15 08:10:39;;;;;;;;;;;26.60;49.90;;;;;;8365207;28;19936;-44
2021/08/15 08:14:39;;;;;;;;;;;26.60;50.00;;;;;;8365818;28;19925;-43
2021/08/15 08:18:40;;;;;;;;;;;26.60;50.00;;;;;;8363598;28;19944;-43
2021/08/15 08:22:41;;;;;;;;;;;26.60;50.00;;;;;;8365008;28;19921;-44
2021/08/15 08:26:41;;;;;;;;;;;26.60;50.00;;;;;;8364665;28;19929;-44
2021/08/15 08:30:42;;;;;;;;;;;26.60;50.00;;;;;;8364960;28;19921;-44
2021/08/15 08:34:42;;;;;;;;;;;26.60;50.10;;;;;;8364254;28;20011;-44
2021/08/15 08:38:43;;;;;;;;;;;26.60;50.10;;;;;;8364521;28;20011;-44
2021/08/15 08:42:44;;;;;;;;;;;26.60;50.10;;;;;;8363491;28;19924;-44
2021/08/15 08:46:45;;;;;;;;;;;26.60;50.10;;;;;;8364810;28;19921;-43
2021/08/15 08:50:48;;;;;;;;;;;26.60;50.10;;;;;;8364083;28;19917;-43
2021/08/15 08:54:49;;;;;;;;;;;26.60;50.10;;;;;;8363531;28;19931;-43
2021/08/15 08:58:49;;;;;;;;;;;26.60;50.10;;;;;;8364062;28;20271;-43
2021/08/15 09:02:55;;;;;;;;;;;26.60;50.10;;;;;;8363304;28;19924;-43
2021/08/15 09:06:55;;;;;;;;;;;26.60;50.10;;;;;;8364266;28;19920;-44
2021/08/15 09:11:15;;;;;;;;;;;26.60;50.10;;;;;;8363749;28;19917;-44
2021/08/15 09:15:20;;;;;;;;;;;26.60;50.10;;;;;;8362872;28;19968;-44
2021/08/15 09:19:35;;;;;;;;;;;26.60;50.10;;;;;;8363656;28;19917;-43
2021/08/15 09:23:36;;;;;;;;;;;26.60;50.10;;;;;;8363297;28;20408;-43
2021/08/15 09:27:45;;;;;;;;;;;26.60;50.10;;;;;;8363129;28;19916;-43
2021/08/15 09:31:47;;;;;;;;;;;26.70;50.10;;;;;;8363106;28;19960;-43
2021/08/15 09:35:47;;;;;;;;;;;26.60;50.00;;;;;;8363083;28;19952;-44
2021/08/15 09:39:48;;;;;;;;;;;26.70;50.10;;;;;;8362403;28;19917;-44
2021/08/15 09:43:49;;;;;;;;;;;26.70;50.10;;;;;;8363506;28;19940;-45
2021/08/15 09:47:49;;;;;;;;;;;26.70;50.10;;;;;;8362064;28;20288;-43
2021/08/15 09:51:49;;;;;;;;;;;26.80;50.10;;;;;;8362308;28;19924;-44
2021/08/15 09:55:50;;;;;;;;;;;26.80;50.10;;;;;;8362307;28;19925;-46
2021/08/15 09:59:50;;;;;;;;;;;26.80;50.10;;;;;;8361838;28;19917;-44
2021/08/15 10:03:51;;;;;;;;;;;26.80;50.60;;;;;;8362839;28;19917;-44
2021/08/15 10:07:52;;;;;;;;;;;26.80;50.10;;;;;;8362687;28;20015;-44
2021/08/15 10:11:52;;;;;;;;;;;26.80;50.10;;;;;;8362159;28;19924;-44
2021/08/15 10:16:05;;;;;;;;;;;26.80;50.20;;;;;;8362240;28;19935;-45
2021/08/15 10:20:11;;;;;;;;;;;26.80;50.70;;;;;;8363182;28;19924;-44
2021/08/15 10:24:13;;;;;;;;;;;26.70;50.50;;;;;;8362160;28;19924;-44
2021/08/15 10:28:33;;;;;;;;;;;26.70;50.30;;;;;;8361997;28;19956;-44
2021/08/15 10:32:34;;;;;;;;;;;26.70;50.20;;;;;;8361688;28;19916;-44
2021/08/15 10:36:34;;;;;;;;;;;26.70;50.30;;;;;;8361314;28;19925;-44
2021/08/15 10:40:38;;;;;;;;;;;26.70;50.40;;;;;;8364487;28;19917;-45
2021/08/15 10:44:58;;;;;;;;;;;26.70;50.40;;;;;;8367893;28;20007;-44
2021/08/15 10:49:01;;;;;;;;;;;26.70;50.30;;;;;;8367103;28;19971;-46
2021/08/15 10:53:22;;;;;;;;;;;26.70;50.40;;;;;;8367145;28;19924;-44
2021/08/15 10:58:01;;;;;;;;;;;26.70;50.30;;;;;;8366459;28;19928;-41
2021/08/15 11:02:22;;;;;;;;;;;26.70;50.40;;;;;;8330908;28;20333;-44
2021/08/15 11:06:32;;;;;;;;;;;26.70;50.50;;;;;;8317944;28;19925;-43
2021/08/15 11:10:51;;;;;;;;;;;26.70;50.50;;;;;;8361148;28;19979;-43
2021/08/15 11:14:57;;;;;;;;;;;26.60;50.50;;;;;;8366423;28;19925;-43
2021/08/15 11:19:07;;;;;;;;;;;26.60;50.40;;;;;;8367065;28;20015;-44
2021/08/15 11:23:09;;;;;;;;;;;26.60;50.50;;;;;;8366813;28;20324;-43
2021/08/15 11:27:14;;;;;;;;;;;26.70;50.60;;;;;;8366795;28;19960;-44
2021/08/15 11:31:14;;;;;;;;;;;26.70;50.60;;;;;;8366607;28;19963;-43
2021/08/15 11:35:15;;;;;;;;;;;26.70;50.60;;;;;;8366397;28;19931;-44
2021/08/15 11:39:15;;;;;;;;;;;26.70;50.60;;;;;;8365836;28;20003;-43
2021/08/15 11:43:17;;;;;;;;;;;26.70;50.60;;;;;;8366832;28;19921;-43
2021/08/15 11:47:18;;;;;;;;;;;26.70;50.60;;;;;;8365910;28;19920;-43
2021/08/15 11:51:18;;;;;;;;;;;26.70;50.60;;;;;;8365098;28;20000;-43
2021/08/15 11:55:26;;;;;;;;;;;26.70;50.60;;;;;;8365607;28;20448;-43
2021/08/15 11:59:26;;;;;;;;;;;26.70;50.50;;;;;;8365477;28;20340;-44
2021/08/15 12:03:27;;;;;;;;;;;26.70;50.50;;;;;;8365853;28;19916;-43
2021/08/15 12:07:28;;;;;;;;;;;26.80;50.50;;;;;;8365821;28;20063;-43
2021/08/15 12:11:29;;;;;;;;;;;26.80;50.50;;;;;;8365270;28;19917;-43
2021/08/15 12:15:30;;;;;;;;;;;26.80;50.50;;;;;;8364657;28;19925;-44
2021/08/15 12:19:31;;;;;;;;;;;26.80;50.50;;;;;;8365784;28;19921;-43
2021/08/15 12:23:32;;;;;;;;;;;26.80;50.40;;;;;;8364939;28;19928;-44
2021/08/15 12:27:32;;;;;;;;;;;26.80;50.40;;;;;;8364406;28;20401;-43
2021/08/15 12:31:34;;;;;;;;;;;26.90;50.40;;;;;;8364525;28;19974;-43
2021/08/15 12:35:35;;;;;;;;;;;26.90;50.30;;;;;;8365256;28;19921;-44
2021/08/15 12:39:36;;;;;;;;;;;26.90;50.30;;;;;;8363992;28;19920;-44
2021/08/15 12:43:36;;;;;;;;;;;26.90;50.30;;;;;;8364165;28;19971;-44
2021/08/15 12:47:38;;;;;;;;;;;26.90;50.30;;;;;;8364355;28;19999;-44
2021/08/15 12:51:38;;;;;;;;;;;27.00;50.30;;;;;;8363551;28;20266;-44
2021/08/15 12:55:40;;;;;;;;;;;27.00;50.30;;;;;;8364558;28;19925;-43
2021/08/15 12:59:40;;;;;;;;;;;27.00;50.40;;;;;;8363720;28;19944;-44
2021/08/15 13:03:41;;;;;;;;;;;27.00;50.30;;;;;;8362657;28;19921;-44
2021/08/15 13:07:42;;;;;;;;;;;27.00;50.20;;;;;;8364054;28;20313;-43
2021/08/15 13:11:42;;;;;;;;;;;27.00;50.30;;;;;;8364490;28;19931;-43
2021/08/15 13:15:43;;;;;;;;;;;27.10;50.30;;;;;;8362924;28;19932;-43
2021/08/15 13:19:43;;;;;;;;;;;27.10;50.20;;;;;;8363464;28;19957;-43
2021/08/15 13:23:44;;;;;;;;;;;27.10;50.20;;;;;;8363250;28;19924;-44
2021/08/15 13:27:44;;;;;;;;;;;27.10;50.20;;;;;;8363037;28;20027;-44
2021/08/15 13:31:45;;;;;;;;;;;27.10;50.20;;;;;;8364001;28;20004;-44
2021/08/15 13:35:45;;;;;;;;;;;27.10;50.10;;;;;;8363051;28;19925;-43
2021/08/15 13:39:46;;;;;;;;;;;27.20;50.10;;;;;;8362645;28;20271;-44
2021/08/15 13:43:46;;;;;;;;;;;27.20;50.10;;;;;;8362853;28;20298;-45
2021/08/15 13:47:48;;;;;;;;;;;27.20;50.20;;;;;;8363589;28;20378;-44
2021/08/15 13:51:48;;;;;;;;;;;27.20;50.10;;;;;;8362599;28;20290;-44
2021/08/15 13:55:49;;;;;;;;;;;27.20;50.10;;;;;;8362614;28;19925;-43
2021/08/15 13:59:51;;;;;;;;;;;27.20;50.10;;;;;;8362457;28;19916;-43
2021/08/15 14:03:52;;;;;;;;;;;27.20;50.20;;;;;;8363929;28;19917;-44
2021/08/15 14:07:52;;;;;;;;;;;27.30;50.20;;;;;;8362994;28;20016;-45
2021/08/15 14:11:52;;;;;;;;;;;27.20;50.50;;;;;;8362266;28;19917;-46
2021/08/15 14:15:53;;;;;;;;;;;27.20;50.40;;;;;;8366777;28;19967;-44
2021/08/15 14:19:54;;;;;;;;;;;27.20;50.30;;;;;;8368943;28;19921;-43
2021/08/15 14:23:55;;;;;;;;;;;27.20;50.20;;;;;;8369346;28;19917;-45
2021/08/15 14:27:57;;;;;;;;;;;27.30;50.30;;;;;;8368988;28;20285;-44
2021/08/15 14:31:57;;;;;;;;;;;27.30;50.20;;;;;;8368604;28;19967;-45
2021/08/15 14:35:57;;;;;;;;;;;27.30;50.20;;;;;;8367955;28;19924;-44
2021/08/15 14:39:58;;;;;;;;;;;27.20;50.20;;;;;;8369194;28;19917;-45
2021/08/15 14:43:58;;;;;;;;;;;27.20;50.20;;;;;;8368072;28;19916;-46
2021/08/15 14:47:59;;;;;;;;;;;27.20;50.20;;;;;;8367542;28;19916;-44
2021/08/15 14:51:59;;;;;;;;;;;27.30;50.40;;;;;;8368126;28;19924;-45
2021/08/15 14:56:01;;;;;;;;;;;27.30;50.30;;;;;;8368451;28;19925;-43
2021/08/15 15:00:02;;;;;;;;;;;27.30;50.30;;;;;;8367283;28;19917;-44
2021/08/15 15:04:03;;;;;;;;;;;27.30;50.30;;;;;;8367445;28;19940;-48
2021/08/15 15:08:03;;;;;;;;;;;27.30;50.30;;;;;;8367558;28;20401;-47
2021/08/15 15:12:04;;;;;;;;;;;27.30;50.30;;;;;;8366673;28;20401;-44
2021/08/15 15:16:05;;;;;;;;;;;27.20;50.20;;;;;;8367592;28;20385;-46
2021/08/15 15:20:06;;;;;;;;;;;27.30;50.30;;;;;;8367263;28;20000;-45
2021/08/15 15:24:06;;;;;;;;;;;27.30;50.30;;;;;;8366228;28;19940;-44
2021/08/15 15:28:07;;;;;;;;;;;27.20;50.20;;;;;;8365967;28;20007;-44
2021/08/15 15:32:07;;;;;;;;;;;27.20;50.30;;;;;;8367378;28;19916;-45
2021/08/15 15:36:07;;;;;;;;;;;27.20;50.30;;;;;;8341281;28;19933;-46
2021/08/15 15:40:09;;;;;;;;;;;27.20;50.30;;;;;;8366202;28;19920;-48
2021/08/15 15:44:09;;;;;;;;;;;27.30;50.30;;;;;;8366285;28;19970;-44
2021/08/15 15:48:10;;;;;;;;;;;27.30;50.30;;;;;;8365956;28;19921;-45
2021/08/15 15:52:10;;;;;;;;;;;27.30;50.30;;;;;;8366444;28;19917;-46
2021/08/15 15:56:11;;;;;;;;;;;27.30;50.30;;;;;;8365654;28;20006;-45
2021/08/15 16:00:12;;;;;;;;;;;27.30;50.20;;;;;;8365122;28;19975;-44
2021/08/15 16:04:12;;;;;;;;;;;27.30;50.10;;;;;;8365601;28;20388;-43
2021/08/15 16:08:13;;;;;;;;;;;27.30;50.20;;;;;;8366613;28;20290;-44
2021/08/15 16:12:13;;;;;;;;;;;27.30;50.10;;;;;;8365143;28;19923;-46
2021/08/15 16:16:14;;;;;;;;;;;27.30;50.10;;;;;;8365237;28;19928;-44
2021/08/15 16:20:14;;;;;;;;;;;27.30;50.20;;;;;;8365073;28;19924;-45
2021/08/15 16:24:15;;;;;;;;;;;27.30;50.10;;;;;;8365375;28;19917;-45
2021/08/15 16:28:15;;;;;;;;;;;27.30;50.30;;;;;;8364781;28;19944;-43
2021/08/15 16:32:16;;;;;;;;;;;27.30;50.20;;;;;;8364603;28;19964;-44
2021/08/15 16:36:16;;;;;;;;;;;27.40;50.30;;;;;;8364107;28;19932;-44
2021/08/15 16:40:17;;;;;;;;;;;27.40;50.40;;;;;;8363565;28;19967;-44
2021/08/15 16:44:17;;;;;;;;;;;27.40;50.30;;;;;;8365019;28;19927;-44
2021/08/15 16:48:18;;;;;;;;;;;27.40;50.20;;;;;;8363917;28;19917;-44
2021/08/15 16:52:19;;;;;;;;;;;27.40;50.20;;;;;;8364271;28;19924;-44
2021/08/15 16:56:19;;;;;;;;;;;27.40;50.20;;;;;;8364131;28;20011;-47
2021/08/15 17:00:20;;;;;;;;;;;27.40;50.30;;;;;;8364167;28;19923;-44
2021/08/15 17:04:20;;;;;;;;;;;27.40;50.30;;;;;;8362643;28;19917;-44
2021/08/15 17:08:21;;;;;;;;;;;27.40;50.30;;;;;;8364263;28;20374;-43
2021/08/15 17:12:21;;;;;;;;;;;27.40;51.00;;;;;;8363116;28;19952;-44
2021/08/15 17:16:21;;;;;;;;;;;27.30;50.30;;;;;;8364114;28;19956;-44
2021/08/15 17:20:22;;;;;;;;;;;27.40;50.30;;;;;;8363479;28;20285;-44
2021/08/15 17:24:22;;;;;;;;;;;27.40;50.50;;;;;;8362882;28;19924;-43
2021/08/15 17:28:23;;;;;;;;;;;27.40;50.30;;;;;;8363373;28;20429;-44
2021/08/15 17:32:23;;;;;;;;;;;27.40;50.30;;;;;;8363284;28;20401;-43
2021/08/15 17:36:25;;;;;;;;;;;27.40;50.30;;;;;;8363381;28;19967;-43
2021/08/15 17:40:25;;;;;;;;;;;27.40;50.30;;;;;;8363148;28;19920;-43
2021/08/15 17:44:26;;;;;;;;;;;27.40;50.30;;;;;;8363077;28;19983;-43
2021/08/15 17:48:27;;;;;;;;;;;27.40;50.30;;;;;;8362890;28;19943;-45
2021/08/15 17:52:28;;;;;;;;;;;27.40;50.30;;;;;;8370303;28;19917;-44
2021/08/15 17:56:28;;;;;;;;;;;27.40;50.40;;;;;;8369477;28;19925;-44
2021/08/15 18:00:29;;;;;;;;;;;27.40;50.30;;;;;;8369100;28;19920;-43
2021/08/15 18:04:29;;;;;;;;;;;27.40;50.30;;;;;;8369297;28;19917;-45
2021/08/15 18:08:32;;;;;;;;;;;27.40;50.30;;;;;;8369844;28;20281;-43
2021/08/15 18:12:33;;;;;;;;;;;27.40;50.30;;;;;;8368834;28;19920;-44
2021/08/15 18:16:33;;;;;;;;;;;27.30;50.30;;;;;;8368998;28;19936;-43
2021/08/15 18:20:34;;;;;;;;;;;27.40;50.50;;;;;;8369087;28;19920;-43
2021/08/15 18:24:39;;;;;;;;;;;27.40;50.50;;;;;;8368167;28;21376;-43
2021/08/15 18:28:39;;;;;;;;;;;27.30;50.70;;;;;;8369216;28;20028;-44
2021/08/15 18:32:40;;;;;;;;;;;27.30;50.70;;;;;;8368344;28;19921;-44
2021/08/15 18:36:40;;;;;;;;;;;27.30;50.90;;;;;;8367663;28;19932;-43
2021/08/15 18:40:41;;;;;;;;;;;27.30;51.00;;;;;;8368106;28;19917;-44
2021/08/15 18:44:41;;;;;;;;;;;27.30;51.30;;;;;;8368703;28;20432;-45
2021/08/15 18:48:42;;;;;;;;;;;27.30;51.30;;;;;;8367628;28;20398;-43
2021/08/15 18:52:42;;;;;;;;;;;27.30;51.70;;;;;;8367876;28;20281;-44
2021/08/15 18:56:43;;;;;;;;;;;27.30;52.00;;;;;;8367624;28;19975;-44
2021/08/15 19:00:43;;;;;;;;;;;27.20;51.90;;;;;;8365985;28;20421;-44
2021/08/15 19:04:45;;;;;;;;;;;27.20;52.10;;;;;;8368397;28;19928;-44
2021/08/15 19:08:45;;;;;;;;;;;27.30;52.10;;;;;;8367816;28;19921;-43
2021/08/15 19:12:49;;;;;;;;;;;27.20;51.40;;;;;;8366650;28;20381;-45
2021/08/15 19:16:50;;;;;;;;;;;27.20;51.20;;;;;;8367001;28;20019;-44
2021/08/15 19:20:50;;;;;;;;;;;27.20;50.80;;;;;;8367231;28;19924;-44
2021/08/15 19:24:51;;;;;;;;;;;27.20;50.70;;;;;;8366650;28;19917;-45
2021/08/15 19:28:51;;;;;;;;;;;27.20;50.60;;;;;;8366741;28;20009;-44
2021/08/15 19:32:52;;;;;;;;;;;27.20;50.60;;;;;;8365285;28;19917;-44
2021/08/15 19:36:53;;;;;;;;;;;27.20;50.60;;;;;;8366404;28;20109;-44
2021/08/15 19:40:53;;;;;;;;;;;27.20;50.50;;;;;;8366480;28;19928;-44
2021/08/15 19:44:54;;;;;;;;;;;27.20;50.60;;;;;;8365532;28;19921;-44
2021/08/15 19:48:55;;;;;;;;;;;27.20;50.60;;;;;;8366179;28;19921;-43
2021/08/15 19:52:55;;;;;;;;;;;27.20;50.60;;;;;;8366023;28;20038;-44
2021/08/15 19:56:56;;;;;;;;;;;27.20;50.60;;;;;;8366166;28;19925;-44
2021/08/15 20:00:57;;;;;;;;;;;27.20;50.60;;;;;;8365707;28;19924;-44
2021/08/15 20:04:57;;;;;;;;;;;27.20;50.60;;;;;;8365761;28;20424;-43
2021/08/15 20:08:58;;;;;;;;;;;27.20;50.60;;;;;;8365306;28;19927;-44
2021/08/15 20:12:58;;;;;;;;;;;27.20;50.60;;;;;;8366157;28;19916;-44
2021/08/15 20:16:59;;;;;;;;;;;27.20;50.60;;;;;;8365161;28;19931;-44
2021/08/15 20:20:59;;;;;;;;;;;27.20;50.60;;;;;;8365344;28;19917;-44
2021/08/15 20:25:02;;;;;;;;;;;27.20;50.60;;;;;;8364075;28;22299;-44
2021/08/15 20:29:03;;;;;;;;;;;27.20;50.60;;;;;;8365217;28;19971;-44
2021/08/15 20:33:05;;;;;;;;;;;27.20;50.70;;;;;;8364664;28;19924;-44
2021/08/15 20:37:05;;;;;;;;;;;27.20;50.70;;;;;;8364446;28;19929;-43
2021/08/15 20:41:05;;;;;;;;;;;27.10;50.60;;;;;;8364296;28;19938;-44
2021/08/15 20:45:07;;;;;;;;;;;27.10;50.60;;;;;;8363932;28;19940;-44
2021/08/15 20:49:08;;;;;;;;;;;27.10;50.60;;;;;;8364911;28;20393;-44
2021/08/15 20:53:09;;;;;;;;;;;27.10;50.60;;;;;;8364284;28;20377;-44
2021/08/15 20:57:09;;;;;;;;;;;27.10;50.70;;;;;;8363836;28;19932;-44
2021/08/15 21:01:10;;;;;;;;;;;27.10;50.60;;;;;;8363844;28;19916;-43
2021/08/15 21:05:10;;;;;;;;;;;27.10;50.70;;;;;;8364419;28;19966;-43
2021/08/15 21:09:11;;;;;;;;;;;27.10;50.60;;;;;;8363286;28;19946;-44
2021/08/15 21:13:12;;;;;;;;;;;27.10;50.70;;;;;;8363834;28;19917;-44
2021/08/15 21:17:12;;;;;;;;;;;27.10;50.70;;;;;;8363536;28;19990;-44
2021/08/15 21:21:12;;;;;;;;;;;27.10;50.70;;;;;;8363129;28;19917;-46
2021/08/15 21:25:13;;;;;;;;;;;27.10;50.70;;;;;;8363644;28;19917;-44
2021/08/15 21:29:13;;;;;;;;;;;27.10;50.70;;;;;;8363368;28;19927;-44
2021/08/15 21:33:14;;;;;;;;;;;27.10;50.70;;;;;;8363055;28;19916;-44
2021/08/15 21:37:14;;;;;;;;;;;27.00;50.70;;;;;;8362995;28;20011;-44
2021/08/15 21:41:15;;;;;;;;;;;27.10;50.70;;;;;;8363878;28;19994;-44
2021/08/15 21:45:20;;;;;;;;;;;27.10;50.80;;;;;;8362428;28;19940;-44
2021/08/15 21:49:21;;;;;;;;;;;27.00;50.70;;;;;;8363256;28;19963;-44
2021/08/15 21:53:21;;;;;;;;;;;27.00;50.70;;;;;;8362989;28;19917;-46
2021/08/15 21:57:22;;;;;;;;;;;27.10;50.80;;;;;;8363116;28;20003;-45
2021/08/15 22:01:22;;;;;;;;;;;27.00;50.70;;;;;;8361605;28;20058;-44
2021/08/15 22:05:23;;;;;;;;;;;27.00;50.70;;;;;;8361901;28;20331;-44
2021/08/15 22:09:23;;;;;;;;;;;27.00;50.80;;;;;;8362757;28;20360;-44
2021/08/15 22:13:27;;;;;;;;;;;27.00;50.80;;;;;;8362875;28;20408;-44
2021/08/15 22:17:28;;;;;;;;;;;27.00;50.80;;;;;;8363172;28;20390;-44
2021/08/15 22:21:28;;;;;;;;;;;27.00;50.80;;;;;;8362095;28;19917;-44
2021/08/15 22:25:29;;;;;;;;;;;27.00;50.80;;;;;;8362690;28;19974;-44
2021/08/15 22:29:29;;;;;;;;;;;27.00;50.80;;;;;;8362287;28;19935;-44
2021/08/15 22:33:30;;;;;;;;;;;27.00;50.80;;;;;;8362737;28;19923;-44
2021/08/15 22:37:30;;;;;;;;;;;27.00;50.80;;;;;;8367255;28;19994;-44
2021/08/15 22:41:31;;;;;;;;;;;27.00;50.80;;;;;;8368408;28;19967;-44
2021/08/15 22:45:31;;;;;;;;;;;26.90;50.70;;;;;;8367581;28;19955;-45
2021/08/15 22:49:32;;;;;;;;;;;26.90;50.80;;;;;;8368164;28;19921;-44
2021/08/15 22:53:32;;;;;;;;;;;26.90;50.70;;;;;;8368624;28;19964;-44
2021/08/15 22:57:33;;;;;;;;;;;26.90;50.80;;;;;;8367157;28;20302;-44
2021/08/15 23:01:33;;;;;;;;;;;26.90;50.80;;;;;;8367546;28;20259;-44
2021/08/15 23:05:36;;;;;;;;;;;26.90;50.80;;;;;;8367727;28;19928;-46
2021/08/15 23:09:37;;;;;;;;;;;26.90;50.80;;;;;;8368157;28;19953;-46
2021/08/15 23:13:37;;;;;;;;;;;26.90;50.80;;;;;;8367354;28;20273;-44
2021/08/15 23:17:38;;;;;;;;;;;26.90;50.80;;;;;;8366971;28;19925;-44
2021/08/15 23:21:39;;;;;;;;;;;26.90;50.80;;;;;;8366720;28;20007;-44